sensor_id;sensor_type;location;lat;lon;timestamp;P1;durP1;ratioP1;P2;durP2;ratioP2
1799;SDS011;919;48.274;12.292;2023-05-13T00:00:25;6.40;;;5.53;;
1799;SDS011;919;48.274;12.292;2023-05-13T00:02:52;6.47;;;5.80;;
1799;SDS011;919;48.274;12.292;2023-05-13T00:05:19;6.43;;;5.63;;
1799;SDS011;919;48.274;12.292;2023-05-13T00:07:45;7.20;;;5.70;;
1799;SDS011;919;48.274;12.292;2023-05-13T00:10:13;6.93;;;5.63;;
1799;SDS011;919;48.274;12.292;2023-05-13T00:12:40;6.50;;;5.30;;
1799;SDS011;919;48.274;12.292;2023-05-13T00:15:08;5.50;;;5.00;;
1799;SDS011;919;48.274;12.292;2023-05-13T00:17:35;6.57;;;5.90;;
1799;SDS011;919;48.274;12.292;2023-05-13T00:20:02;6.87;;;6.20;;
1799;SDS011;919;48.274;12.292;2023-05-13T00:22:29;5.27;;;4.77;;
1799;SDS011;919;48.274;12.292;2023-05-13T00:24:56;7.77;;;5.43;;
1799;SDS011;919;48.274;12.292;2023-05-13T00:27:24;7.20;;;5.90;;
1799;SDS011;919;48.274;12.292;2023-05-13T00:29:50;6.10;;;5.47;;
1799;SDS011;919;48.274;12.292;2023-05-13T00:32:17;5.70;;;5.10;;
1799;SDS011;919;48.274;12.292;2023-05-13T00:34:44;6.17;;;5.57;;
1799;SDS011;919;48.274;12.292;2023-05-13T00:37:10;6.77;;;5.70;;
1799;SDS011;919;48.274;12.292;2023-05-13T00:39:38;6.27;;;5.60;;
1799;SDS011;919;48.274;12.292;2023-05-13T00:42:04;6.90;;;6.20;;
1799;SDS011;919;48.274;12.292;2023-05-13T00:44:33;7.00;;;6.30;;
1799;SDS011;919;48.274;12.292;2023-05-13T00:46:59;6.97;;;6.27;;
1799;SDS011;919;48.274;12.292;2023-05-13T00:49:26;6.80;;;6.20;;
1799;SDS011;919;48.274;12.292;2023-05-13T00:51:53;6.73;;;5.93;;
1799;SDS011;919;48.274;12.292;2023-05-13T00:54:20;9.33;;;7.63;;
1799;SDS011;919;48.274;12.292;2023-05-13T00:56:46;10.23;;;8.17;;
1799;SDS011;919;48.274;12.292;2023-05-13T00:59:18;9.63;;;8.27;;
1799;SDS011;919;48.274;12.292;2023-05-13T01:01:47;10.90;;;9.13;;
1799;SDS011;919;48.274;12.292;2023-05-13T01:04:24;12.03;;;10.73;;
1799;SDS011;919;48.274;12.292;2023-05-13T01:06:58;11.43;;;10.23;;
1799;SDS011;919;48.274;12.292;2023-05-13T01:09:32;10.23;;;9.13;;
1799;SDS011;919;48.274;12.292;2023-05-13T01:12:08;8.90;;;8.00;;
1799;SDS011;919;48.274;12.292;2023-05-13T01:14:41;10.30;;;8.53;;
1799;SDS011;919;48.274;12.292;2023-05-13T01:17:19;7.50;;;6.70;;
1799;SDS011;919;48.274;12.292;2023-05-13T01:19:51;8.17;;;7.37;;
1799;SDS011;919;48.274;12.292;2023-05-13T01:22:21;7.00;;;6.30;;
1799;SDS011;919;48.274;12.292;2023-05-13T01:24:47;6.87;;;6.17;;
1799;SDS011;919;48.274;12.292;2023-05-13T01:27:14;7.77;;;6.97;;
1799;SDS011;919;48.274;12.292;2023-05-13T01:29:42;9.00;;;7.83;;
1799;SDS011;919;48.274;12.292;2023-05-13T01:32:10;9.73;;;8.53;;
1799;SDS011;919;48.274;12.292;2023-05-13T01:34:37;10.07;;;9.07;;
1799;SDS011;919;48.274;12.292;2023-05-13T01:37:05;9.67;;;8.53;;
1799;SDS011;919;48.274;12.292;2023-05-13T01:39:34;12.03;;;9.50;;
1799;SDS011;919;48.274;12.292;2023-05-13T01:42:03;10.37;;;9.37;;
1799;SDS011;919;48.274;12.292;2023-05-13T01:44:30;11.33;;;10.13;;
1799;SDS011;919;48.274;12.292;2023-05-13T01:46:56;10.87;;;9.70;;
1799;SDS011;919;48.274;12.292;2023-05-13T01:49:23;11.43;;;9.73;;
1799;SDS011;919;48.274;12.292;2023-05-13T01:51:50;14.47;;;10.70;;
1799;SDS011;919;48.274;12.292;2023-05-13T01:54:17;11.93;;;9.67;;
1799;SDS011;919;48.274;12.292;2023-05-13T01:56:45;12.70;;;10.13;;
1799;SDS011;919;48.274;12.292;2023-05-13T01:59:12;10.47;;;8.80;;
1799;SDS011;919;48.274;12.292;2023-05-13T02:01:38;9.77;;;8.77;;
1799;SDS011;919;48.274;12.292;2023-05-13T02:04:05;9.73;;;7.90;;
1799;SDS011;919;48.274;12.292;2023-05-13T02:06:32;8.23;;;7.37;;
1799;SDS011;919;48.274;12.292;2023-05-13T02:08:59;8.47;;;7.60;;
1799;SDS011;919;48.274;12.292;2023-05-13T02:11:25;9.13;;;7.70;;
1799;SDS011;919;48.274;12.292;2023-05-13T02:13:54;10.40;;;8.70;;
1799;SDS011;919;48.274;12.292;2023-05-13T02:16:20;13.43;;;9.80;;
1799;SDS011;919;48.274;12.292;2023-05-13T02:18:47;12.20;;;10.20;;
1799;SDS011;919;48.274;12.292;2023-05-13T02:21:14;12.17;;;9.90;;
1799;SDS011;919;48.274;12.292;2023-05-13T02:23:40;10.40;;;8.83;;
1799;SDS011;919;48.274;12.292;2023-05-13T02:26:07;10.43;;;9.13;;
1799;SDS011;919;48.274;12.292;2023-05-13T02:28:35;9.40;;;8.30;;
1799;SDS011;919;48.274;12.292;2023-05-13T02:31:03;11.37;;;9.60;;
1799;SDS011;919;48.274;12.292;2023-05-13T02:33:30;8.30;;;7.50;;
1799;SDS011;919;48.274;12.292;2023-05-13T02:35:57;7.97;;;6.90;;
1799;SDS011;919;48.274;12.292;2023-05-13T02:38:24;8.33;;;7.40;;
1799;SDS011;919;48.274;12.292;2023-05-13T02:40:50;8.17;;;6.77;;
1799;SDS011;919;48.274;12.292;2023-05-13T02:43:17;7.87;;;6.90;;
1799;SDS011;919;48.274;12.292;2023-05-13T02:45:44;7.73;;;6.60;;
1799;SDS011;919;48.274;12.292;2023-05-13T02:48:12;7.60;;;6.40;;
1799;SDS011;919;48.274;12.292;2023-05-13T02:50:40;7.63;;;6.90;;
1799;SDS011;919;48.274;12.292;2023-05-13T02:53:06;8.30;;;6.80;;
1799;SDS011;919;48.274;12.292;2023-05-13T02:55:33;7.80;;;6.60;;
1799;SDS011;919;48.274;12.292;2023-05-13T02:58:00;7.57;;;6.77;;
1799;SDS011;919;48.274;12.292;2023-05-13T03:00:26;9.13;;;7.67;;
1799;SDS011;919;48.274;12.292;2023-05-13T03:02:53;10.00;;;7.80;;
1799;SDS011;919;48.274;12.292;2023-05-13T03:05:21;9.77;;;7.70;;
1799;SDS011;919;48.274;12.292;2023-05-13T03:07:48;7.20;;;6.50;;
1799;SDS011;919;48.274;12.292;2023-05-13T03:10:15;8.33;;;7.03;;
1799;SDS011;919;48.274;12.292;2023-05-13T03:12:41;8.23;;;6.70;;
1799;SDS011;919;48.274;12.292;2023-05-13T03:15:09;7.90;;;6.63;;
1799;SDS011;919;48.274;12.292;2023-05-13T03:17:35;7.53;;;6.83;;
1799;SDS011;919;48.274;12.292;2023-05-13T03:20:02;9.00;;;7.60;;
1799;SDS011;919;48.274;12.292;2023-05-13T03:22:31;8.00;;;6.93;;
1799;SDS011;919;48.274;12.292;2023-05-13T03:24:58;7.83;;;6.40;;
1799;SDS011;919;48.274;12.292;2023-05-13T03:27:24;7.70;;;6.50;;
1799;SDS011;919;48.274;12.292;2023-05-13T03:29:51;8.70;;;7.70;;
1799;SDS011;919;48.274;12.292;2023-05-13T03:32:18;7.30;;;6.60;;
1799;SDS011;919;48.274;12.292;2023-05-13T03:34:45;8.70;;;6.60;;
1799;SDS011;919;48.274;12.292;2023-05-13T03:37:11;10.20;;;6.50;;
1799;SDS011;919;48.274;12.292;2023-05-13T03:39:39;8.30;;;7.27;;
1799;SDS011;919;48.274;12.292;2023-05-13T03:42:06;7.37;;;6.33;;
1799;SDS011;919;48.274;12.292;2023-05-13T03:44:33;7.03;;;6.33;;
1799;SDS011;919;48.274;12.292;2023-05-13T03:47:00;9.13;;;7.50;;
1799;SDS011;919;48.274;12.292;2023-05-13T03:49:27;6.20;;;5.50;;
1799;SDS011;919;48.274;12.292;2023-05-13T03:51:53;6.93;;;6.23;;
1799;SDS011;919;48.274;12.292;2023-05-13T03:54:20;8.17;;;5.97;;
1799;SDS011;919;48.274;12.292;2023-05-13T03:56:48;7.50;;;6.50;;
1799;SDS011;919;48.274;12.292;2023-05-13T03:59:15;7.40;;;6.37;;
1799;SDS011;919;48.274;12.292;2023-05-13T04:01:41;6.80;;;6.10;;
1799;SDS011;919;48.274;12.292;2023-05-13T04:04:08;8.30;;;6.40;;
1799;SDS011;919;48.274;12.292;2023-05-13T04:06:35;6.50;;;5.90;;
1799;SDS011;919;48.274;12.292;2023-05-13T04:09:02;8.33;;;5.83;;
1799;SDS011;919;48.274;12.292;2023-05-13T04:11:29;7.00;;;6.30;;
1799;SDS011;919;48.274;12.292;2023-05-13T04:13:57;7.30;;;6.50;;
1799;SDS011;919;48.274;12.292;2023-05-13T04:16:24;6.03;;;5.50;;
1799;SDS011;919;48.274;12.292;2023-05-13T04:18:51;7.13;;;6.40;;
1799;SDS011;919;48.274;12.292;2023-05-13T04:21:18;7.77;;;5.83;;
1799;SDS011;919;48.274;12.292;2023-05-13T04:23:45;7.43;;;6.63;;
1799;SDS011;919;48.274;12.292;2023-05-13T04:26:11;7.53;;;6.70;;
1799;SDS011;919;48.274;12.292;2023-05-13T04:28:38;7.30;;;5.93;;
1799;SDS011;919;48.274;12.292;2023-05-13T04:31:06;6.80;;;6.03;;
1799;SDS011;919;48.274;12.292;2023-05-13T04:33:33;7.53;;;6.80;;
1799;SDS011;919;48.274;12.292;2023-05-13T04:36:00;6.47;;;5.83;;
1799;SDS011;919;48.274;12.292;2023-05-13T04:38:26;7.17;;;6.47;;
1799;SDS011;919;48.274;12.292;2023-05-13T04:40:53;8.30;;;6.40;;
1799;SDS011;919;48.274;12.292;2023-05-13T04:43:20;7.07;;;6.40;;
1799;SDS011;919;48.274;12.292;2023-05-13T04:45:47;8.30;;;7.40;;
1799;SDS011;919;48.274;12.292;2023-05-13T04:48:15;8.07;;;7.23;;
1799;SDS011;919;48.274;12.292;2023-05-13T04:50:43;6.20;;;5.60;;
1799;SDS011;919;48.274;12.292;2023-05-13T04:53:11;7.10;;;6.27;;
1799;SDS011;919;48.274;12.292;2023-05-13T04:55:38;8.23;;;7.30;;
1799;SDS011;919;48.274;12.292;2023-05-13T04:58:05;8.23;;;7.17;;
1799;SDS011;919;48.274;12.292;2023-05-13T05:00:31;9.90;;;7.67;;
1799;SDS011;919;48.274;12.292;2023-05-13T05:02:58;9.27;;;8.20;;
1799;SDS011;919;48.274;12.292;2023-05-13T05:05:26;9.70;;;8.63;;
1799;SDS011;919;48.274;12.292;2023-05-13T05:07:53;10.50;;;7.70;;
1799;SDS011;919;48.274;12.292;2023-05-13T05:10:20;8.37;;;7.13;;
1799;SDS011;919;48.274;12.292;2023-05-13T05:12:46;7.73;;;6.93;;
1799;SDS011;919;48.274;12.292;2023-05-13T05:15:13;8.50;;;6.60;;
1799;SDS011;919;48.274;12.292;2023-05-13T05:17:40;10.23;;;7.27;;
1799;SDS011;919;48.274;12.292;2023-05-13T05:20:07;8.30;;;7.00;;
1799;SDS011;919;48.274;12.292;2023-05-13T05:22:37;8.13;;;6.30;;
1799;SDS011;919;48.274;12.292;2023-05-13T05:25:06;7.53;;;6.70;;
1799;SDS011;919;48.274;12.292;2023-05-13T05:27:33;5.80;;;5.30;;
1799;SDS011;919;48.274;12.292;2023-05-13T05:30:00;8.07;;;6.70;;
1799;SDS011;919;48.274;12.292;2023-05-13T05:32:26;6.90;;;6.20;;
1799;SDS011;919;48.274;12.292;2023-05-13T05:34:53;7.77;;;6.17;;
1799;SDS011;919;48.274;12.292;2023-05-13T05:37:20;6.30;;;5.53;;
1799;SDS011;919;48.274;12.292;2023-05-13T05:39:48;6.87;;;6.17;;
1799;SDS011;919;48.274;12.292;2023-05-13T05:42:15;5.57;;;4.50;;
1799;SDS011;919;48.274;12.292;2023-05-13T05:44:41;5.63;;;5.13;;
1799;SDS011;919;48.274;12.292;2023-05-13T05:47:08;5.90;;;5.30;;
1799;SDS011;919;48.274;12.292;2023-05-13T05:49:35;4.53;;;4.13;;
1799;SDS011;919;48.274;12.292;2023-05-13T05:52:01;5.30;;;4.73;;
1799;SDS011;919;48.274;12.292;2023-05-13T05:54:29;7.50;;;4.17;;
1799;SDS011;919;48.274;12.292;2023-05-13T05:56:57;5.27;;;4.77;;
1799;SDS011;919;48.274;12.292;2023-05-13T05:59:24;5.47;;;4.97;;
1799;SDS011;919;48.274;12.292;2023-05-13T06:01:50;5.50;;;5.00;;
1799;SDS011;919;48.274;12.292;2023-05-13T06:04:17;4.50;;;4.10;;
1799;SDS011;919;48.274;12.292;2023-05-13T06:06:44;5.27;;;4.77;;
1799;SDS011;919;48.274;12.292;2023-05-13T06:09:10;4.90;;;4.37;;
1799;SDS011;919;48.274;12.292;2023-05-13T06:11:37;5.20;;;4.60;;
1799;SDS011;919;48.274;12.292;2023-05-13T06:14:05;5.03;;;4.60;;
1799;SDS011;919;48.274;12.292;2023-05-13T06:16:32;6.07;;;4.00;;
1799;SDS011;919;48.274;12.292;2023-05-13T06:18:59;5.23;;;4.73;;
1799;SDS011;919;48.274;12.292;2023-05-13T06:21:25;5.67;;;4.43;;
1799;SDS011;919;48.274;12.292;2023-05-13T06:23:52;5.40;;;4.67;;
1799;SDS011;919;48.274;12.292;2023-05-13T06:26:19;5.40;;;4.90;;
1799;SDS011;919;48.274;12.292;2023-05-13T06:28:46;5.10;;;4.60;;
1799;SDS011;919;48.274;12.292;2023-05-13T06:31:14;5.07;;;4.67;;
1799;SDS011;919;48.274;12.292;2023-05-13T06:33:41;5.23;;;4.73;;
1799;SDS011;919;48.274;12.292;2023-05-13T06:36:07;5.03;;;4.53;;
1799;SDS011;919;48.274;12.292;2023-05-13T06:38:34;4.93;;;4.50;;
1799;SDS011;919;48.274;12.292;2023-05-13T06:41:01;7.53;;;5.40;;
1799;SDS011;919;48.274;12.292;2023-05-13T06:43:28;5.87;;;4.67;;
1799;SDS011;919;48.274;12.292;2023-05-13T06:45:54;5.50;;;4.93;;
1799;SDS011;919;48.274;12.292;2023-05-13T06:48:22;5.03;;;4.63;;
1799;SDS011;919;48.274;12.292;2023-05-13T06:50:49;4.40;;;4.00;;
1799;SDS011;919;48.274;12.292;2023-05-13T06:53:16;4.60;;;4.20;;
1799;SDS011;919;48.274;12.292;2023-05-13T06:55:42;4.97;;;4.57;;
1799;SDS011;919;48.274;12.292;2023-05-13T06:58:09;5.93;;;5.37;;
1799;SDS011;919;48.274;12.292;2023-05-13T07:00:36;5.23;;;4.73;;
1799;SDS011;919;48.274;12.292;2023-05-13T07:03:04;5.13;;;4.63;;
1799;SDS011;919;48.274;12.292;2023-05-13T07:05:32;6.03;;;5.33;;
1799;SDS011;919;48.274;12.292;2023-05-13T07:08:00;4.80;;;4.33;;
1799;SDS011;919;48.274;12.292;2023-05-13T07:10:30;5.70;;;4.97;;
1799;SDS011;919;48.274;12.292;2023-05-13T07:12:57;4.73;;;4.27;;
1799;SDS011;919;48.274;12.292;2023-05-13T07:15:24;4.70;;;4.30;;
1799;SDS011;919;48.274;12.292;2023-05-13T07:17:51;11.20;;;5.13;;
1799;SDS011;919;48.274;12.292;2023-05-13T07:20:18;5.23;;;4.73;;
1799;SDS011;919;48.274;12.292;2023-05-13T07:22:47;4.60;;;4.20;;
1799;SDS011;919;48.274;12.292;2023-05-13T07:25:14;5.17;;;4.67;;
1799;SDS011;919;48.274;12.292;2023-05-13T07:27:41;4.50;;;4.10;;
1799;SDS011;919;48.274;12.292;2023-05-13T07:30:09;4.33;;;3.93;;
1799;SDS011;919;48.274;12.292;2023-05-13T07:32:36;4.37;;;3.97;;
1799;SDS011;919;48.274;12.292;2023-05-13T07:35:03;4.30;;;3.90;;
1799;SDS011;919;48.274;12.292;2023-05-13T07:37:31;4.50;;;4.07;;
1799;SDS011;919;48.274;12.292;2023-05-13T07:39:59;4.73;;;4.17;;
1799;SDS011;919;48.274;12.292;2023-05-13T07:42:26;4.80;;;4.20;;
1799;SDS011;919;48.274;12.292;2023-05-13T07:44:54;4.17;;;3.77;;
1799;SDS011;919;48.274;12.292;2023-05-13T07:47:20;4.13;;;3.70;;
1799;SDS011;919;48.274;12.292;2023-05-13T07:49:47;3.83;;;3.50;;
1799;SDS011;919;48.274;12.292;2023-05-13T07:52:14;3.80;;;3.40;;
1799;SDS011;919;48.274;12.292;2023-05-13T07:54:41;4.60;;;4.20;;
1799;SDS011;919;48.274;12.292;2023-05-13T07:57:09;4.23;;;3.83;;
1799;SDS011;919;48.274;12.292;2023-05-13T07:59:36;3.63;;;3.33;;
1799;SDS011;919;48.274;12.292;2023-05-13T08:02:03;3.50;;;3.23;;
1799;SDS011;919;48.274;12.292;2023-05-13T08:04:30;2.83;;;2.57;;
1799;SDS011;919;48.274;12.292;2023-05-13T08:06:56;2.67;;;2.37;;
1799;SDS011;919;48.274;12.292;2023-05-13T08:09:23;3.50;;;3.20;;
1799;SDS011;919;48.274;12.292;2023-05-13T08:11:50;3.30;;;3.00;;
1799;SDS011;919;48.274;12.292;2023-05-13T08:14:18;3.13;;;2.87;;
1799;SDS011;919;48.274;12.292;2023-05-13T08:16:45;3.43;;;2.73;;
1799;SDS011;919;48.274;12.292;2023-05-13T08:19:12;3.03;;;2.73;;
1799;SDS011;919;48.274;12.292;2023-05-13T08:21:39;2.73;;;2.53;;
1799;SDS011;919;48.274;12.292;2023-05-13T08:24:06;2.83;;;2.53;;
1799;SDS011;919;48.274;12.292;2023-05-13T08:26:33;3.23;;;2.93;;
1799;SDS011;919;48.274;12.292;2023-05-13T08:28:59;2.87;;;2.43;;
1799;SDS011;919;48.274;12.292;2023-05-13T08:31:28;3.70;;;2.80;;
1799;SDS011;919;48.274;12.292;2023-05-13T08:33:56;2.47;;;2.27;;
1799;SDS011;919;48.274;12.292;2023-05-13T08:36:23;3.00;;;2.70;;
1799;SDS011;919;48.274;12.292;2023-05-13T08:38:51;3.70;;;2.63;;
1799;SDS011;919;48.274;12.292;2023-05-13T08:41:18;3.00;;;2.70;;
1799;SDS011;919;48.274;12.292;2023-05-13T08:43:46;2.60;;;2.40;;
1799;SDS011;919;48.274;12.292;2023-05-13T08:46:15;3.20;;;2.90;;
1799;SDS011;919;48.274;12.292;2023-05-13T08:48:44;3.73;;;3.43;;
1799;SDS011;919;48.274;12.292;2023-05-13T08:51:12;2.93;;;2.70;;
1799;SDS011;919;48.274;12.292;2023-05-13T08:53:39;3.33;;;3.10;;
1799;SDS011;919;48.274;12.292;2023-05-13T08:56:08;3.53;;;3.23;;
1799;SDS011;919;48.274;12.292;2023-05-13T08:58:36;3.77;;;3.47;;
1799;SDS011;919;48.274;12.292;2023-05-13T09:01:03;4.00;;;3.60;;
1799;SDS011;919;48.274;12.292;2023-05-13T09:03:31;3.23;;;3.00;;
1799;SDS011;919;48.274;12.292;2023-05-13T09:06:01;3.53;;;3.23;;
1799;SDS011;919;48.274;12.292;2023-05-13T09:08:28;3.50;;;3.20;;
1799;SDS011;919;48.274;12.292;2023-05-13T09:10:56;3.63;;;3.30;;
1799;SDS011;919;48.274;12.292;2023-05-13T09:13:23;4.20;;;3.80;;
1799;SDS011;919;48.274;12.292;2023-05-13T09:15:50;4.10;;;3.70;;
1799;SDS011;919;48.274;12.292;2023-05-13T09:18:16;3.83;;;3.47;;
1799;SDS011;919;48.274;12.292;2023-05-13T09:20:43;3.53;;;3.23;;
1799;SDS011;919;48.274;12.292;2023-05-13T09:23:12;3.67;;;3.33;;
1799;SDS011;919;48.274;12.292;2023-05-13T09:25:39;3.80;;;3.50;;
1799;SDS011;919;48.274;12.292;2023-05-13T09:28:06;4.47;;;4.03;;
1799;SDS011;919;48.274;12.292;2023-05-13T09:30:34;3.10;;;2.90;;
1799;SDS011;919;48.274;12.292;2023-05-13T09:33:03;3.80;;;3.47;;
1799;SDS011;919;48.274;12.292;2023-05-13T09:35:32;3.83;;;3.53;;
1799;SDS011;919;48.274;12.292;2023-05-13T09:38:00;4.13;;;3.77;;
1799;SDS011;919;48.274;12.292;2023-05-13T09:40:37;4.20;;;3.80;;
1799;SDS011;919;48.274;12.292;2023-05-13T09:43:04;4.57;;;3.90;;
1799;SDS011;919;48.274;12.292;2023-05-13T09:45:32;7.30;;;3.60;;
1799;SDS011;919;48.274;12.292;2023-05-13T09:47:59;3.93;;;3.63;;
1799;SDS011;919;48.274;12.292;2023-05-13T09:50:26;3.70;;;3.40;;
1799;SDS011;919;48.274;12.292;2023-05-13T09:52:53;3.20;;;3.00;;
1799;SDS011;919;48.274;12.292;2023-05-13T09:55:21;4.23;;;3.53;;
1799;SDS011;919;48.274;12.292;2023-05-13T09:57:49;3.70;;;3.37;;
1799;SDS011;919;48.274;12.292;2023-05-13T10:00:30;3.63;;;3.33;;
1799;SDS011;919;48.274;12.292;2023-05-13T10:02:57;4.40;;;4.00;;
1799;SDS011;919;48.274;12.292;2023-05-13T10:05:26;5.73;;;5.13;;
1799;SDS011;919;48.274;12.292;2023-05-13T10:07:53;3.97;;;3.57;;
1799;SDS011;919;48.274;12.292;2023-05-13T10:10:25;3.50;;;3.20;;
1799;SDS011;919;48.274;12.292;2023-05-13T10:12:57;3.00;;;2.80;;
1799;SDS011;919;48.274;12.292;2023-05-13T10:15:28;3.20;;;2.90;;
1799;SDS011;919;48.274;12.292;2023-05-13T10:18:12;3.37;;;3.10;;
1799;SDS011;919;48.274;12.292;2023-05-13T10:20:46;13.97;;;10.90;;
1799;SDS011;919;48.274;12.292;2023-05-13T10:23:17;4.73;;;4.33;;
1799;SDS011;919;48.274;12.292;2023-05-13T10:25:45;4.23;;;3.93;;
1799;SDS011;919;48.274;12.292;2023-05-13T10:28:17;2.90;;;2.70;;
1799;SDS011;919;48.274;12.292;2023-05-13T10:30:46;3.00;;;2.80;;
1799;SDS011;919;48.274;12.292;2023-05-13T10:33:15;3.43;;;3.20;;
1799;SDS011;919;48.274;12.292;2023-05-13T10:35:44;2.80;;;2.60;;
1799;SDS011;919;48.274;12.292;2023-05-13T10:38:20;2.90;;;2.70;;
1799;SDS011;919;48.274;12.292;2023-05-13T10:41:00;4.20;;;3.13;;
1799;SDS011;919;48.274;12.292;2023-05-13T10:43:35;2.87;;;2.67;;
1799;SDS011;919;48.274;12.292;2023-05-13T10:46:03;3.17;;;2.93;;
1799;SDS011;919;48.274;12.292;2023-05-13T10:48:37;3.27;;;3.07;;
1799;SDS011;919;48.274;12.292;2023-05-13T10:51:05;3.73;;;3.43;;
1799;SDS011;919;48.274;12.292;2023-05-13T10:53:35;3.67;;;3.47;;
1799;SDS011;919;48.274;12.292;2023-05-13T10:56:03;3.40;;;3.17;;
1799;SDS011;919;48.274;12.292;2023-05-13T10:58:32;3.00;;;2.80;;
1799;SDS011;919;48.274;12.292;2023-05-13T11:01:17;3.20;;;3.00;;
1799;SDS011;919;48.274;12.292;2023-05-13T11:03:51;3.73;;;3.43;;
1799;SDS011;919;48.274;12.292;2023-05-13T11:06:19;4.20;;;3.43;;
1799;SDS011;919;48.274;12.292;2023-05-13T11:08:48;3.37;;;3.07;;
1799;SDS011;919;48.274;12.292;2023-05-13T11:11:16;3.10;;;2.90;;
1799;SDS011;919;48.274;12.292;2023-05-13T11:13:48;3.20;;;2.90;;
1799;SDS011;919;48.274;12.292;2023-05-13T11:16:17;2.60;;;2.40;;
1799;SDS011;919;48.274;12.292;2023-05-13T11:18:44;2.80;;;2.60;;
1799;SDS011;919;48.274;12.292;2023-05-13T11:21:11;2.57;;;2.37;;
1799;SDS011;919;48.274;12.292;2023-05-13T11:23:51;3.03;;;2.83;;
1799;SDS011;919;48.274;12.292;2023-05-13T11:26:21;3.20;;;2.30;;
1799;SDS011;919;48.274;12.292;2023-05-13T11:28:52;2.60;;;2.40;;
1799;SDS011;919;48.274;12.292;2023-05-13T11:31:43;2.70;;;2.50;;
1799;SDS011;919;48.274;12.292;2023-05-13T11:34:13;2.50;;;2.30;;
1799;SDS011;919;48.274;12.292;2023-05-13T11:36:41;2.50;;;2.30;;
1799;SDS011;919;48.274;12.292;2023-05-13T11:39:10;2.00;;;1.90;;
1799;SDS011;919;48.274;12.292;2023-05-13T11:41:39;2.43;;;2.23;;
1799;SDS011;919;48.274;12.292;2023-05-13T11:44:07;2.60;;;2.40;;
1799;SDS011;919;48.274;12.292;2023-05-13T11:46:36;2.63;;;2.13;;
1799;SDS011;919;48.274;12.292;2023-05-13T11:49:04;3.20;;;2.90;;
1799;SDS011;919;48.274;12.292;2023-05-13T11:51:30;1.90;;;1.80;;
1799;SDS011;919;48.274;12.292;2023-05-13T11:53:59;1.80;;;1.70;;
1799;SDS011;919;48.274;12.292;2023-05-13T11:56:27;2.50;;;2.40;;
1799;SDS011;919;48.274;12.292;2023-05-13T11:58:55;2.73;;;2.53;;
1799;SDS011;919;48.274;12.292;2023-05-13T12:01:37;2.43;;;2.23;;
1799;SDS011;919;48.274;12.292;2023-05-13T12:04:05;2.57;;;2.47;;
1799;SDS011;919;48.274;12.292;2023-05-13T12:06:32;1.97;;;1.87;;
1799;SDS011;919;48.274;12.292;2023-05-13T12:09:03;2.63;;;2.43;;
1799;SDS011;919;48.274;12.292;2023-05-13T12:11:30;2.00;;;1.90;;
1799;SDS011;919;48.274;12.292;2023-05-13T12:13:57;2.10;;;2.00;;
1799;SDS011;919;48.274;12.292;2023-05-13T12:16:24;2.40;;;2.30;;
1799;SDS011;919;48.274;12.292;2023-05-13T12:18:55;2.00;;;1.90;;
1799;SDS011;919;48.274;12.292;2023-05-13T12:21:27;2.20;;;2.10;;
1799;SDS011;919;48.274;12.292;2023-05-13T12:23:56;2.40;;;2.30;;
1799;SDS011;919;48.274;12.292;2023-05-13T12:26:23;2.20;;;2.10;;
1799;SDS011;919;48.274;12.292;2023-05-13T12:28:55;2.67;;;2.47;;
1799;SDS011;919;48.274;12.292;2023-05-13T12:31:22;3.03;;;2.83;;
1799;SDS011;919;48.274;12.292;2023-05-13T12:33:49;2.10;;;2.00;;
1799;SDS011;919;48.274;12.292;2023-05-13T12:36:16;4.13;;;2.43;;
1799;SDS011;919;48.274;12.292;2023-05-13T12:38:56;2.80;;;2.60;;
1799;SDS011;919;48.274;12.292;2023-05-13T12:41:25;2.60;;;2.50;;
1799;SDS011;919;48.274;12.292;2023-05-13T12:43:57;2.43;;;2.33;;
1799;SDS011;919;48.274;12.292;2023-05-13T12:46:25;2.60;;;2.43;;
1799;SDS011;919;48.274;12.292;2023-05-13T12:48:53;2.40;;;2.30;;
1799;SDS011;919;48.274;12.292;2023-05-13T12:51:21;2.60;;;2.40;;
1799;SDS011;919;48.274;12.292;2023-05-13T12:53:48;3.23;;;2.40;;
1799;SDS011;919;48.274;12.292;2023-05-13T12:56:17;2.43;;;2.23;;
1799;SDS011;919;48.274;12.292;2023-05-13T12:58:44;1.97;;;1.87;;
1799;SDS011;919;48.274;12.292;2023-05-13T13:01:10;3.00;;;2.67;;
1799;SDS011;919;48.274;12.292;2023-05-13T13:03:37;2.83;;;2.40;;
1799;SDS011;919;48.274;12.292;2023-05-13T13:06:04;2.07;;;1.90;;
1799;SDS011;919;48.274;12.292;2023-05-13T13:08:31;2.50;;;2.40;;
1799;SDS011;919;48.274;12.292;2023-05-13T13:10:58;2.77;;;2.57;;
1799;SDS011;919;48.274;12.292;2023-05-13T13:13:26;2.57;;;2.47;;
1799;SDS011;919;48.274;12.292;2023-05-13T13:15:53;2.67;;;2.50;;
1799;SDS011;919;48.274;12.292;2023-05-13T13:18:20;2.60;;;2.40;;
1799;SDS011;919;48.274;12.292;2023-05-13T13:20:48;3.30;;;3.10;;
1799;SDS011;919;48.274;12.292;2023-05-13T13:23:15;3.00;;;2.80;;
1799;SDS011;919;48.274;12.292;2023-05-13T13:25:42;2.37;;;2.27;;
1799;SDS011;919;48.274;12.292;2023-05-13T13:28:11;2.60;;;2.50;;
1799;SDS011;919;48.274;12.292;2023-05-13T13:30:39;3.50;;;2.57;;
1799;SDS011;919;48.274;12.292;2023-05-13T13:33:10;2.83;;;2.73;;
1799;SDS011;919;48.274;12.292;2023-05-13T13:35:38;2.20;;;2.10;;
1799;SDS011;919;48.274;12.292;2023-05-13T13:38:05;2.40;;;2.30;;
1799;SDS011;919;48.274;12.292;2023-05-13T13:40:32;2.37;;;2.27;;
1799;SDS011;919;48.274;12.292;2023-05-13T13:42:59;2.70;;;2.50;;
1799;SDS011;919;48.274;12.292;2023-05-13T13:45:26;2.47;;;2.33;;
1799;SDS011;919;48.274;12.292;2023-05-13T13:47:54;2.73;;;2.57;;
1799;SDS011;919;48.274;12.292;2023-05-13T13:50:21;2.43;;;2.23;;
1799;SDS011;919;48.274;12.292;2023-05-13T13:52:47;2.90;;;2.37;;
1799;SDS011;919;48.274;12.292;2023-05-13T13:55:16;2.20;;;2.10;;
1799;SDS011;919;48.274;12.292;2023-05-13T13:57:43;2.30;;;2.10;;
1799;SDS011;919;48.274;12.292;2023-05-13T14:00:10;1.93;;;1.83;;
1799;SDS011;919;48.274;12.292;2023-05-13T14:02:38;2.50;;;2.10;;
1799;SDS011;919;48.274;12.292;2023-05-13T14:05:06;1.93;;;1.83;;
1799;SDS011;919;48.274;12.292;2023-05-13T14:07:34;2.60;;;2.03;;
1799;SDS011;919;48.274;12.292;2023-05-13T14:10:02;1.93;;;1.83;;
1799;SDS011;919;48.274;12.292;2023-05-13T14:12:29;1.80;;;1.70;;
1799;SDS011;919;48.274;12.292;2023-05-13T14:14:56;2.03;;;1.93;;
1799;SDS011;919;48.274;12.292;2023-05-13T14:17:23;2.20;;;2.10;;
1799;SDS011;919;48.274;12.292;2023-05-13T14:19:50;2.00;;;1.90;;
1799;SDS011;919;48.274;12.292;2023-05-13T14:22:20;1.43;;;1.40;;
1799;SDS011;919;48.274;12.292;2023-05-13T14:24:47;1.87;;;1.77;;
1799;SDS011;919;48.274;12.292;2023-05-13T14:27:15;2.00;;;1.90;;
1799;SDS011;919;48.274;12.292;2023-05-13T14:29:42;1.77;;;1.67;;
1799;SDS011;919;48.274;12.292;2023-05-13T14:32:10;2.37;;;2.17;;
1799;SDS011;919;48.274;12.292;2023-05-13T14:34:36;1.93;;;1.83;;
1799;SDS011;919;48.274;12.292;2023-05-13T14:37:03;2.00;;;1.90;;
1799;SDS011;919;48.274;12.292;2023-05-13T14:39:32;2.73;;;2.53;;
1799;SDS011;919;48.274;12.292;2023-05-13T14:41:59;2.10;;;2.00;;
1799;SDS011;919;48.274;12.292;2023-05-13T14:44:26;2.47;;;2.33;;
1799;SDS011;919;48.274;12.292;2023-05-13T14:46:52;2.20;;;2.10;;
1799;SDS011;919;48.274;12.292;2023-05-13T14:49:20;2.07;;;1.97;;
1799;SDS011;919;48.274;12.292;2023-05-13T14:51:46;2.07;;;1.97;;
1799;SDS011;919;48.274;12.292;2023-05-13T14:54:13;2.37;;;2.20;;
1799;SDS011;919;48.274;12.292;2023-05-13T14:56:42;1.73;;;1.63;;
1799;SDS011;919;48.274;12.292;2023-05-13T14:59:09;1.50;;;1.50;;
1799;SDS011;919;48.274;12.292;2023-05-13T15:01:36;2.07;;;1.97;;
1799;SDS011;919;48.274;12.292;2023-05-13T15:04:03;1.60;;;1.50;;
1799;SDS011;919;48.274;12.292;2023-05-13T15:06:30;2.30;;;1.87;;
1799;SDS011;919;48.274;12.292;2023-05-13T15:08:56;2.20;;;2.10;;
1799;SDS011;919;48.274;12.292;2023-05-13T15:11:24;1.60;;;1.50;;
1799;SDS011;919;48.274;12.292;2023-05-13T15:13:52;1.50;;;1.47;;
1799;SDS011;919;48.274;12.292;2023-05-13T15:16:19;2.30;;;2.10;;
1799;SDS011;919;48.274;12.292;2023-05-13T15:18:46;1.70;;;1.60;;